createdAt,value
2023-03-16T00:02:06.188Z,10.75
2023-03-16T00:04:37.454Z,7.43
2023-03-16T00:07:09.686Z,8.60
2023-03-16T00:09:41.010Z,6.80
2023-03-16T00:12:18.925Z,6.83
2023-03-16T00:14:48.514Z,8.03
2023-03-16T00:17:20.737Z,6.03
2023-03-16T00:19:55.933Z,8.50
2023-03-16T00:22:27.780Z,7.63
2023-03-16T00:24:55.387Z,7.17
2023-03-16T00:27:23.565Z,7.83
2023-03-16T00:29:55.842Z,5.87
2023-03-16T00:32:32.024Z,4.13
2023-03-16T00:34:59.082Z,8.80
2023-03-16T00:37:27.303Z,8.07
2023-03-16T00:39:57.087Z,8.57
2023-03-16T00:42:29.584Z,6.57
2023-03-16T00:44:57.728Z,6.57
2023-03-16T00:47:32.933Z,7.03
2023-03-16T00:50:01.171Z,7.07
2023-03-16T00:52:29.011Z,9.70
2023-03-16T00:54:56.971Z,5.80
2023-03-16T00:57:25.599Z,10.27
2023-03-16T00:59:52.657Z,5.90
2023-03-16T01:02:23.655Z,6.53
2023-03-16T01:07:18.692Z,7.07
2023-03-16T01:09:45.299Z,7.13
2023-03-16T01:12:17.441Z,8.50
2023-03-16T01:14:47.608Z,6.00
2023-03-16T01:17:15.422Z,9.20
2023-03-16T01:19:42.453Z,6.03
2023-03-16T01:22:11.826Z,7.07
2023-03-16T01:24:39.761Z,6.90
2023-03-16T01:27:07.667Z,6.50
2023-03-16T01:29:34.739Z,9.07
2023-03-16T01:32:01.926Z,6.93
2023-03-16T01:34:28.592Z,7.20
2023-03-16T01:36:55.923Z,5.80
2023-03-16T01:39:23.282Z,9.60
2023-03-16T01:41:49.825Z,6.13
2023-03-16T01:44:20.230Z,7.93
2023-03-16T01:46:46.824Z,8.90
2023-03-16T01:49:34.036Z,9.17
2023-03-16T01:52:12.576Z,6.17
2023-03-16T01:54:59.054Z,6.27
2023-03-16T01:57:35.317Z,8.67
2023-03-16T02:00:21.591Z,15.37
2023-03-16T02:02:55.135Z,9.13
2023-03-16T02:05:33.337Z,7.73
2023-03-16T02:08:02.126Z,7.13
2023-03-16T02:10:29.577Z,8.07
2023-03-16T02:12:59.803Z,9.03
2023-03-16T02:15:27.401Z,5.57
2023-03-16T02:17:54.327Z,6.43
2023-03-16T02:20:39.123Z,13.17
2023-03-16T02:23:09.071Z,7.00
2023-03-16T02:25:52.765Z,5.97
2023-03-16T02:28:28.199Z,5.73
2023-03-16T02:30:57.163Z,7.20
2023-03-16T02:33:25.334Z,6.20
2023-03-16T02:35:52.023Z,11.17
2023-03-16T02:38:18.632Z,7.20
2023-03-16T02:40:54.387Z,7.13
2023-03-16T02:43:26.787Z,5.73
2023-03-16T02:45:56.961Z,8.33
2023-03-16T02:49:03.327Z,8.18
2023-03-16T02:51:30.804Z,11.60
2023-03-16T02:53:57.412Z,8.03
2023-03-16T02:56:25.379Z,8.57
2023-03-16T02:58:51.907Z,7.07
2023-03-16T03:01:18.454Z,6.60
2023-03-16T03:03:45.023Z,6.27
2023-03-16T03:06:11.623Z,9.93
2023-03-16T03:08:38.445Z,6.73
2023-03-16T03:11:05.245Z,8.53
2023-03-16T03:13:31.813Z,8.40
2023-03-16T03:15:58.384Z,7.07
2023-03-16T03:18:25.385Z,12.47
2023-03-16T03:20:52.126Z,8.57
2023-03-16T03:23:18.694Z,9.90
2023-03-16T03:25:45.819Z,6.20
2023-03-16T03:28:12.436Z,6.73
2023-03-16T03:30:38.994Z,6.73
2023-03-16T03:33:05.655Z,8.73
2023-03-16T03:35:32.376Z,6.50
2023-03-16T03:37:59.006Z,6.50
2023-03-16T03:40:26.348Z,7.90
2023-03-16T03:42:52.997Z,6.07
2023-03-16T03:45:19.593Z,9.17
2023-03-16T03:47:46.238Z,5.57
2023-03-16T03:50:13.946Z,5.50
2023-03-16T03:52:41.092Z,18.07
2023-03-16T03:55:08.698Z,9.97
2023-03-16T03:57:35.663Z,10.27
2023-03-16T04:00:02.333Z,7.13
2023-03-16T04:02:29.193Z,8.87
2023-03-16T04:04:55.845Z,8.77
2023-03-16T04:07:22.383Z,6.90
2023-03-16T04:09:48.983Z,5.60
2023-03-16T04:12:15.510Z,14.60
2023-03-16T04:14:42.094Z,8.93
2023-03-16T04:17:08.777Z,8.37
2023-03-16T04:19:35.370Z,7.87
2023-03-16T04:22:01.910Z,8.57
2023-03-16T04:24:28.638Z,9.07
2023-03-16T04:26:55.354Z,7.77
2023-03-16T04:29:22.042Z,8.43
2023-03-16T04:31:48.674Z,9.70
2023-03-16T04:34:15.299Z,7.30
2023-03-16T04:36:42.196Z,8.13
2023-03-16T04:39:10.500Z,8.03
2023-03-16T04:41:37.666Z,6.87
2023-03-16T04:44:04.871Z,9.10
2023-03-16T04:46:32.221Z,8.63
2023-03-16T04:48:58.956Z,6.30
2023-03-16T04:51:26.437Z,8.17
2023-03-16T04:53:53.397Z,8.50
2023-03-16T04:56:20.189Z,11.33
2023-03-16T04:58:50.941Z,7.30
2023-03-16T05:01:18.548Z,7.88
2023-03-16T05:03:45.642Z,7.13
2023-03-16T05:06:12.615Z,8.03
2023-03-16T05:08:39.176Z,7.83
2023-03-16T05:11:06.094Z,7.30
2023-03-16T05:13:34.434Z,7.13
2023-03-16T05:16:01.969Z,6.17
2023-03-16T05:18:28.660Z,6.23
2023-03-16T05:20:56.486Z,8.73
2023-03-16T05:23:23.463Z,9.47
2023-03-16T05:25:50.666Z,8.07
2023-03-16T05:28:17.396Z,6.60
2023-03-16T05:30:45.373Z,8.07
2023-03-16T05:33:12.688Z,7.03
2023-03-16T05:35:39.828Z,7.00
2023-03-16T05:38:06.600Z,8.10
2023-03-16T05:40:33.624Z,10.00
2023-03-16T05:43:01.014Z,7.27
2023-03-16T05:45:28.477Z,9.43
2023-03-16T05:47:55.115Z,6.73
2023-03-16T05:50:21.826Z,11.00
2023-03-16T05:52:48.530Z,7.87
2023-03-16T05:55:17.400Z,7.40
2023-03-16T05:57:44.566Z,8.67
2023-03-16T06:00:15.701Z,7.50
2023-03-16T06:02:43.887Z,9.83
2023-03-16T06:05:11.238Z,8.77
2023-03-16T06:07:37.986Z,10.33
2023-03-16T06:10:06.532Z,8.20
2023-03-16T06:12:34.561Z,6.17
2023-03-16T06:15:02.649Z,5.77
2023-03-16T06:17:29.584Z,7.17
2023-03-16T06:19:56.207Z,7.03
2023-03-16T06:22:24.039Z,10.23
2023-03-16T06:24:51.581Z,8.70
2023-03-16T06:27:22.199Z,8.63
2023-03-16T06:29:48.824Z,10.02
2023-03-16T06:32:15.370Z,10.77
2023-03-16T06:34:41.977Z,8.07
2023-03-16T06:37:08.653Z,9.47
2023-03-16T06:39:35.229Z,6.57
2023-03-16T06:42:01.886Z,8.73
2023-03-16T06:44:28.532Z,8.63
2023-03-16T06:46:55.124Z,8.80
2023-03-16T06:49:21.683Z,10.47
2023-03-16T06:51:48.348Z,9.00
2023-03-16T06:54:14.943Z,9.87
2023-03-16T06:56:41.502Z,13.87
2023-03-16T06:59:08.383Z,10.90
2023-03-16T07:01:35.008Z,12.87
2023-03-16T07:04:01.857Z,8.63
2023-03-16T07:06:28.519Z,10.70
2023-03-16T07:08:55.159Z,7.43
2023-03-16T07:11:21.766Z,11.33
2023-03-16T07:13:48.543Z,17.47
2023-03-16T07:16:15.224Z,7.30
2023-03-16T07:18:44.388Z,6.97
2023-03-16T07:21:11.429Z,4.80
2023-03-16T07:23:38.007Z,4.00
2023-03-16T07:26:04.742Z,5.88
2023-03-16T07:28:32.314Z,4.43
2023-03-16T07:31:03.941Z,7.28
2023-03-16T07:33:32.582Z,6.07
2023-03-16T07:36:00.120Z,4.50
2023-03-16T07:38:26.707Z,6.03
2023-03-16T07:40:53.294Z,9.25
2023-03-16T07:43:19.931Z,5.43
2023-03-16T07:45:51.329Z,5.82
2023-03-16T07:48:18.660Z,4.30
2023-03-16T07:50:48.148Z,6.38
2023-03-16T07:53:17.862Z,4.05
2023-03-16T07:55:45.226Z,7.15
2023-03-16T07:58:12.285Z,3.78
2023-03-16T08:00:39.445Z,3.45
2023-03-16T08:03:06.382Z,4.60
2023-03-16T08:05:33.041Z,4.47
2023-03-16T08:08:01.208Z,4.88
2023-03-16T08:10:28.821Z,3.83
2023-03-16T08:12:55.726Z,4.45
2023-03-16T08:15:22.932Z,5.28
2023-03-16T08:17:49.690Z,4.47
2023-03-16T08:20:16.313Z,5.95
2023-03-16T08:22:46.124Z,4.43
2023-03-16T08:25:13.448Z,6.50
2023-03-16T08:27:40.296Z,6.15
2023-03-16T08:30:11.369Z,7.53
2023-03-16T08:32:39.890Z,6.18
2023-03-16T08:35:13.856Z,7.55
2023-03-16T08:37:41.574Z,5.88
2023-03-16T08:40:11.180Z,5.05
2023-03-16T08:42:41.295Z,10.10
2023-03-16T08:45:12.259Z,4.90
2023-03-16T08:47:40.541Z,6.13
2023-03-16T08:50:09.442Z,6.10
2023-03-16T08:52:36.640Z,8.23
2023-03-16T08:55:05.749Z,5.63
2023-03-16T08:57:33.460Z,9.77
2023-03-16T09:00:01.367Z,6.00
2023-03-16T09:02:28.065Z,6.05
2023-03-16T09:04:54.808Z,4.88
2023-03-16T09:07:21.965Z,3.95
2023-03-16T09:09:48.627Z,5.68
2023-03-16T09:12:15.267Z,4.10
2023-03-16T09:14:41.985Z,6.53
2023-03-16T09:17:08.596Z,6.97
2023-03-16T09:19:50.786Z,6.22
2023-03-16T09:22:19.738Z,4.00
2023-03-16T09:24:47.366Z,5.72
2023-03-16T09:27:15.292Z,5.25
2023-03-16T09:29:42.803Z,17.92
2023-03-16T09:32:09.991Z,5.88
2023-03-16T09:34:36.714Z,6.30
2023-03-16T09:37:03.593Z,4.60
2023-03-16T09:39:30.310Z,6.22
2023-03-16T09:42:04.331Z,6.85
2023-03-16T09:44:52.695Z,5.78
2023-03-16T09:47:25.727Z,3.10
2023-03-16T09:50:02.095Z,4.95
2023-03-16T09:52:54.278Z,5.78
2023-03-16T09:56:01.716Z,5.55
2023-03-16T09:59:07.025Z,3.58
2023-03-16T10:02:47.272Z,4.10
2023-03-16T10:08:12.816Z,5.55
2023-03-16T10:13:42.464Z,3.92
2023-03-16T10:16:15.785Z,5.93
2023-03-16T10:18:46.993Z,4.60
2023-03-16T10:21:18.346Z,4.85
2023-03-16T10:23:49.758Z,3.63
2023-03-16T10:26:23.004Z,3.47
2023-03-16T10:28:49.658Z,3.67
2023-03-16T10:31:20.272Z,3.35
2023-03-16T10:33:48.110Z,3.25
2023-03-16T10:36:19.730Z,5.63
2023-03-16T10:38:51.802Z,6.28
2023-03-16T10:41:18.398Z,3.67
2023-03-16T10:43:51.425Z,3.08
2023-03-16T10:46:21.750Z,1.65
2023-03-16T10:49:00.816Z,5.53
2023-03-16T10:51:38.014Z,3.33
2023-03-16T10:54:14.280Z,4.45
2023-03-16T10:56:41.207Z,2.70
2023-03-16T10:59:30.380Z,4.47
2023-03-16T11:01:57.157Z,12.68
2023-03-16T11:04:24.475Z,3.05
2023-03-16T11:06:56.652Z,3.40
2023-03-16T11:09:34.953Z,2.40
2023-03-16T11:12:15.477Z,2.33
2023-03-16T11:14:45.394Z,4.88
2023-03-16T11:17:18.119Z,3.53
2023-03-16T11:19:54.627Z,3.30
2023-03-16T11:22:25.289Z,3.50
2023-03-16T11:25:06.986Z,3.53
2023-03-16T11:28:03.829Z,3.65
2023-03-16T11:30:39.878Z,5.25
2023-03-16T11:33:12.582Z,3.20
2023-03-16T11:35:59.635Z,3.20
2023-03-16T11:39:00.780Z,2.42
2023-03-16T11:41:45.683Z,2.70
2023-03-16T11:44:31.082Z,3.60
2023-03-16T11:47:10.318Z,3.40
2023-03-16T11:49:55.822Z,4.25
2023-03-16T11:52:33.115Z,2.88
2023-03-16T11:55:21.422Z,1.45
2023-03-16T11:58:01.242Z,3.72
2023-03-16T12:00:39.505Z,3.10
2023-03-16T12:03:45.851Z,1.85
2023-03-16T12:06:34.679Z,2.83
2023-03-16T12:09:26.667Z,4.43
2023-03-16T12:12:36.272Z,3.65
2023-03-16T12:15:29.779Z,3.58
2023-03-16T12:18:02.806Z,3.85
2023-03-16T12:20:58.869Z,2.72
2023-03-16T12:23:40.861Z,2.63
2023-03-16T12:26:09.004Z,3.78
2023-03-16T12:28:37.111Z,3.70
2023-03-16T12:31:25.137Z,2.33
2023-03-16T12:34:13.232Z,2.63
2023-03-16T12:36:42.511Z,3.78
2023-03-16T12:39:21.112Z,1.98
2023-03-16T12:41:50.539Z,2.40
2023-03-16T12:44:31.628Z,2.78
2023-03-16T12:49:37.164Z,1.60
2023-03-16T12:52:10.168Z,3.28
2023-03-16T12:54:49.721Z,1.58
2023-03-16T12:57:17.399Z,2.38
2023-03-16T12:59:52.967Z,2.28
2023-03-16T13:02:44.265Z,2.67
2023-03-16T13:05:14.707Z,4.68
2023-03-16T13:08:03.605Z,3.03
2023-03-16T13:10:31.426Z,2.05
2023-03-16T13:13:16.119Z,2.85
2023-03-16T13:15:47.420Z,2.92
2023-03-16T13:18:17.086Z,4.43
2023-03-16T13:20:57.144Z,3.28
2023-03-16T13:23:58.598Z,3.92
2023-03-16T13:29:23.062Z,5.47
2023-03-16T13:32:17.328Z,2.55
2023-03-16T13:34:50.115Z,4.50
2023-03-16T13:37:19.788Z,3.80
2023-03-16T13:40:00.860Z,1.42
2023-03-16T13:45:13.336Z,6.05
2023-03-16T13:47:43.608Z,1.30
2023-03-16T13:50:13.671Z,4.03
2023-03-16T13:52:43.280Z,2.15
2023-03-16T13:55:26.264Z,1.30
2023-03-16T13:57:53.369Z,1.90
2023-03-16T14:00:32.425Z,2.65
2023-03-16T14:03:04.065Z,2.20
2023-03-16T14:05:34.660Z,1.42
2023-03-16T14:08:02.261Z,12.48
2023-03-16T14:10:33.308Z,2.42
2023-03-16T14:15:38.711Z,2.25
2023-03-16T14:18:14.321Z,1.30
2023-03-16T14:20:41.816Z,1.25
2023-03-16T14:23:31.755Z,1.73
2023-03-16T14:25:58.450Z,2.00
2023-03-16T14:28:32.365Z,2.65
2023-03-16T14:31:13.500Z,2.05
2023-03-16T14:36:17.822Z,1.67
2023-03-16T14:38:48.994Z,1.52
2023-03-16T14:41:26.373Z,1.70
2023-03-16T14:43:59.146Z,2.28
2023-03-16T14:46:29.985Z,1.52
2023-03-16T14:49:28.093Z,1.90
2023-03-16T14:52:02.129Z,1.58
2023-03-16T14:54:29.139Z,2.25
2023-03-16T14:57:01.912Z,2.70
2023-03-16T14:59:29.005Z,1.42
2023-03-16T15:01:56.770Z,2.75
2023-03-16T15:04:42.143Z,3.13
2023-03-16T15:07:22.350Z,2.38
2023-03-16T15:09:50.720Z,3.67
2023-03-16T15:12:19.756Z,2.10
2023-03-16T15:15:06.005Z,2.75
2023-03-16T15:17:33.600Z,2.38
2023-03-16T15:20:01.218Z,2.35
2023-03-16T15:22:32.405Z,1.30
2023-03-16T15:25:00.228Z,1.98
2023-03-16T15:27:36.513Z,5.75
2023-03-16T15:30:03.345Z,3.58
2023-03-16T15:32:29.970Z,1.80
2023-03-16T15:34:57.738Z,2.38
2023-03-16T15:37:27.585Z,2.47
2023-03-16T15:39:54.636Z,2.38
2023-03-16T15:42:21.300Z,1.52
2023-03-16T15:44:48.358Z,2.97
2023-03-16T15:47:15.424Z,1.85
2023-03-16T15:49:47.935Z,2.60
2023-03-16T15:52:29.798Z,1.80
2023-03-16T15:55:04.502Z,2.75
2023-03-16T15:57:32.015Z,3.38
2023-03-16T15:59:59.328Z,2.10
2023-03-16T16:02:31.269Z,3.00
2023-03-16T16:04:59.102Z,3.13
2023-03-16T16:07:27.228Z,1.35
2023-03-16T16:09:53.863Z,1.38
2023-03-16T16:12:26.702Z,2.03
2023-03-16T16:14:54.258Z,1.65
2023-03-16T16:17:36.441Z,2.95
2023-03-16T16:20:34.269Z,2.00
2023-03-16T16:23:02.849Z,1.65
2023-03-16T16:25:37.480Z,1.50
2023-03-16T16:28:39.273Z,2.30
2023-03-16T16:31:13.563Z,1.65
2023-03-16T16:33:40.139Z,2.20
2023-03-16T16:36:13.945Z,1.80
2023-03-16T16:38:40.707Z,2.70
2023-03-16T16:41:09.183Z,1.63
2023-03-16T16:43:42.558Z,2.38
2023-03-16T16:46:15.593Z,2.10
2023-03-16T16:49:07.415Z,2.70
2023-03-16T16:51:34.350Z,2.58
2023-03-16T16:54:02.073Z,2.55
2023-03-16T16:56:31.898Z,2.28
2023-03-16T16:59:01.624Z,3.90
2023-03-16T17:01:34.714Z,2.65
2023-03-16T17:04:02.703Z,2.13
2023-03-16T17:06:29.832Z,9.98
2023-03-16T17:08:56.638Z,5.07
2023-03-16T17:11:29.995Z,2.38
2023-03-16T17:13:59.550Z,4.43
2023-03-16T17:16:27.770Z,3.75
2023-03-16T17:18:58.214Z,3.63
2023-03-16T17:21:28.119Z,3.70
2023-03-16T17:23:54.687Z,5.80
2023-03-16T17:26:36.308Z,4.68
2023-03-16T17:29:25.745Z,4.22
2023-03-16T17:31:52.910Z,2.55
2023-03-16T17:34:23.156Z,2.60
2023-03-16T17:36:50.208Z,5.05
2023-03-16T17:39:23.238Z,3.40
2023-03-16T17:42:06.348Z,3.47
2023-03-16T17:44:38.116Z,4.47
2023-03-16T17:47:24.079Z,3.55
2023-03-16T17:49:52.004Z,2.97
2023-03-16T17:52:25.355Z,7.20
2023-03-16T17:54:53.252Z,6.35
2023-03-16T17:57:32.664Z,9.57
2023-03-16T18:00:01.974Z,7.13
2023-03-16T18:02:56.419Z,4.00
2023-03-16T18:05:32.747Z,3.80
2023-03-16T18:08:06.880Z,5.10
2023-03-16T18:10:34.008Z,4.07
2023-03-16T18:13:08.331Z,3.35
2023-03-16T18:15:36.659Z,2.65
2023-03-16T18:18:07.196Z,1.98
2023-03-16T18:20:36.536Z,3.85
2023-03-16T18:23:15.314Z,2.67
2023-03-16T18:25:42.811Z,1.42
2023-03-16T18:28:10.928Z,3.90
2023-03-16T18:30:39.506Z,4.57
2023-03-16T18:33:12.653Z,2.67
2023-03-16T18:35:39.393Z,3.72
2023-03-16T18:38:19.589Z,7.80
2023-03-16T18:40:47.559Z,3.60
2023-03-16T18:43:18.272Z,3.08
2023-03-16T18:45:46.494Z,5.10
2023-03-16T18:48:32.475Z,3.85
2023-03-16T18:51:00.123Z,6.43
2023-03-16T18:53:28.812Z,5.85
2023-03-16T18:55:57.396Z,3.10
2023-03-16T18:58:24.909Z,2.50
2023-03-16T19:01:01.471Z,2.03
2023-03-16T19:03:31.800Z,2.95
2023-03-16T19:06:00.397Z,3.47
2023-03-16T19:08:28.437Z,3.47
2023-03-16T19:11:01.289Z,4.78
2023-03-16T19:13:27.954Z,2.80
2023-03-16T19:15:55.976Z,2.78
2023-03-16T19:18:24.908Z,2.00
2023-03-16T19:20:54.066Z,3.83
2023-03-16T19:23:30.933Z,2.88
2023-03-16T19:25:58.524Z,3.30
2023-03-16T19:28:34.005Z,4.35
2023-03-16T19:31:03.992Z,4.00
2023-03-16T19:33:31.013Z,2.95
2023-03-16T19:35:58.072Z,3.45
2023-03-16T19:38:25.794Z,2.63
2023-03-16T19:40:56.650Z,1.98
2023-03-16T19:43:24.388Z,2.03
2023-03-16T19:45:51.516Z,2.53
2023-03-16T19:48:32.544Z,2.60
2023-03-16T19:51:00.597Z,2.67
2023-03-16T19:53:27.541Z,2.22
2023-03-16T19:55:54.946Z,2.08
2023-03-16T19:58:32.308Z,2.00
2023-03-16T20:01:01.047Z,2.70
2023-03-16T20:03:29.157Z,2.67
2023-03-16T20:05:55.887Z,4.07
2023-03-16T20:08:25.774Z,5.47
2023-03-16T20:11:03.706Z,3.83
2023-03-16T20:13:33.091Z,4.28
2023-03-16T20:15:59.779Z,3.42
2023-03-16T20:18:29.402Z,7.80
2023-03-16T20:20:56.074Z,6.30
2023-03-16T20:23:29.210Z,4.07
2023-03-16T20:26:01.996Z,3.47
2023-03-16T20:28:34.814Z,1.85
2023-03-16T20:31:01.924Z,2.67
2023-03-16T20:33:31.588Z,3.40
2023-03-16T20:35:58.188Z,5.22
2023-03-16T20:38:26.130Z,4.13
2023-03-16T20:40:54.408Z,2.22
2023-03-16T20:43:25.117Z,3.92
2023-03-16T20:45:54.531Z,7.90
2023-03-16T20:48:21.352Z,3.50
2023-03-16T20:50:48.255Z,4.78
2023-03-16T20:53:15.014Z,5.80
2023-03-16T20:55:41.654Z,4.20
2023-03-16T20:58:18.819Z,5.03
2023-03-16T21:00:46.731Z,5.78
2023-03-16T21:03:24.804Z,5.53
2023-03-16T21:05:52.585Z,4.18
2023-03-16T21:08:20.079Z,3.75
2023-03-16T21:10:49.362Z,3.13
2023-03-16T21:13:32.712Z,5.75
2023-03-16T21:16:01.805Z,2.95
2023-03-16T21:18:30.369Z,3.45
2023-03-16T21:20:58.259Z,3.45
2023-03-16T21:23:25.028Z,4.63
2023-03-16T21:25:57.200Z,3.75
2023-03-16T21:28:26.457Z,3.03
2023-03-16T21:30:55.437Z,12.65
2023-03-16T21:33:41.964Z,3.58
2023-03-16T21:36:17.438Z,2.78
2023-03-16T21:38:45.479Z,4.65
2023-03-16T21:41:12.355Z,4.03
2023-03-16T21:43:39.564Z,6.50
2023-03-16T21:46:26.514Z,8.02
2023-03-16T21:48:55.072Z,4.47
2023-03-16T21:51:25.318Z,5.60
2023-03-16T21:53:53.505Z,8.63
2023-03-16T21:56:25.998Z,5.70
2023-03-16T21:58:53.758Z,10.68
2023-03-16T22:01:24.809Z,9.95
2023-03-16T22:03:53.970Z,9.43
2023-03-16T22:06:25.615Z,7.82
2023-03-16T22:08:54.869Z,8.15
2023-03-16T22:11:24.395Z,7.63
2023-03-16T22:13:51.814Z,8.55
2023-03-16T22:16:20.874Z,6.38
2023-03-16T22:18:50.075Z,7.30
2023-03-16T22:21:37.612Z,9.70
2023-03-16T22:24:07.588Z,8.60
2023-03-16T22:26:34.143Z,5.78
2023-03-16T22:29:01.975Z,6.35
2023-03-16T22:31:34.177Z,9.02
2023-03-16T22:34:03.448Z,5.80
2023-03-16T22:36:33.236Z,7.15
2023-03-16T22:39:12.322Z,5.38
2023-03-16T22:41:38.973Z,7.97
2023-03-16T22:44:05.640Z,7.68
2023-03-16T22:46:33.495Z,7.40
2023-03-16T22:49:00.204Z,10.80
2023-03-16T22:51:28.865Z,6.03
2023-03-16T22:54:01.265Z,5.72
2023-03-16T22:56:30.739Z,6.80
2023-03-16T22:59:04.680Z,7.45
2023-03-16T23:01:40.253Z,7.18
2023-03-16T23:04:32.522Z,5.18
2023-03-16T23:06:59.509Z,6.47
2023-03-16T23:09:26.335Z,6.00
2023-03-16T23:11:54.646Z,6.90
2023-03-16T23:14:24.269Z,8.13
2023-03-16T23:16:54.760Z,4.25
2023-03-16T23:19:32.335Z,6.75
2023-03-16T23:22:02.064Z,3.90
2023-03-16T23:24:28.674Z,7.25
2023-03-16T23:26:55.560Z,4.93
2023-03-16T23:29:23.312Z,6.80
2023-03-16T23:31:50.511Z,4.80
2023-03-16T23:34:22.839Z,6.03
2023-03-16T23:36:50.959Z,4.47
2023-03-16T23:39:18.543Z,6.20
2023-03-16T23:41:48.522Z,4.65
2023-03-16T23:44:22.362Z,6.28
2023-03-16T23:46:49.826Z,5.57
2023-03-16T23:49:23.587Z,7.50
2023-03-16T23:51:51.072Z,7.82
2023-03-16T23:54:25.430Z,8.10
2023-03-16T23:56:52.440Z,6.72
2023-03-16T23:59:20.336Z,5.53
